Hlavní strana
METAR-TAF:

METAR-TAF

Letiště :

Letiště Orio al Serio

Bergamo, Itálie

zeměpisná šířka: 45-40N, zeměpisná délka: 009-42E, výška: 238 m

Aktuální stav počasí

Zpráva byla vytvořena před 18 minutami, v 07:50 UTC
Severoseverovýchodní vítr 2 kt
Teplota 6°C
Vlhkost vzduchu 75%
Tlak 1024 hPa
Viditelnost: 8000 m

METAR: LIME 220750Z 02002KT 8000 NSC 06/02 Q1024 NOSIG

Čas: 09:08 (08:08 UTC)

Předpověď počasí

Zpráva byla vytvořena před 3 hodinami a 8 minutami, v 05:00 UTC
Předpověď platná od 22 v 06 UTC do 23 v 06 UTC
vítr z různých směrů 5 kt
Viditelnost: 7000 m

TAF: LIME 220500Z 2206/2306 VRB05KT 7000 NSC

Stav a předpovědi počasí z více než 4 000 letišť (zprávy METAR a TAF).

Červené a žluté tečky na mapě představují dostupné meteorologické stanice.

Když kurzor umístíte na tečku, zobrazí se název stanice.

Pak kliknutím zobrazíte stav a předpověď počasí.

Chcete-li změnit mapu, kliknutím na zelené tlačítko se znaménkem +mapu přiblížíte, kliknutím na zelené tlačítko se znaménkem – mapu oddálíte a kliknutím na zelené šipky přejdete na sousední mapy.


METAR-TAF: